Time;durP1;ratioP1;P1;durP2;ratioP2;P2;SDS_P1;SDS_P2;PMS_P1;PMS_P2;Temp;Humidity;BMP_temperature;BMP_pressure;BME280_temperature;BME280_humidity;BME280_pressure;Samples;Min_cycle;Max_cycle;Signal;HPM_P1;HPM_P2
2024/01/31 00:01:37;;;;;;;4.75;1.35;;;;;;;;;;5122385;27;20043;-87
2024/01/31 00:04:04;;;;;;;6.45;1.30;;;;;;;;;;5091483;27;20488;-86
2024/01/31 00:06:30;;;;;;;6.13;1.85;;;;;;;;;;5116144;27;20046;-87
2024/01/31 00:09:00;;;;;;;6.53;1.58;;;;;;;;;;5131003;27;20050;-86
2024/01/31 00:11:30;;;;;;;5.72;1.77;;;;;;;;;;5117919;27;20083;-87
2024/01/31 00:13:56;;;;;;;7.55;1.60;;;;;;;;;;5131299;27;20049;-88
2024/01/31 00:16:23;;;;;;;10.88;2.05;;;;;;;;;;5125037;27;20850;-86
2024/01/31 00:18:50;;;;;;;7.25;1.65;;;;;;;;;;5137055;27;20046;-86
2024/01/31 00:21:16;;;;;;;4.28;1.40;;;;;;;;;;5099863;27;20134;-86
2024/01/31 00:23:42;;;;;;;9.13;1.50;;;;;;;;;;5100505;27;20507;-86
2024/01/31 00:26:09;;;;;;;6.03;1.67;;;;;;;;;;5102420;27;20098;-89
2024/01/31 00:28:34;;;;;;;;;;;;;;;;;;5120874;27;20039;-86
2024/01/31 00:31:00;;;;;;;4.40;1.48;;;;;;;;;;5137375;27;20026;-86
2024/01/31 00:33:27;;;;;;;9.15;1.83;;;;;;;;;;5137620;27;20051;-87
2024/01/31 00:35:53;;;;;;;8.07;1.65;;;;;;;;;;5137033;27;20103;-89
2024/01/31 00:38:19;;;;;;;;;;;;;;;;;;5121050;27;20047;-87
2024/01/31 00:40:45;;;;;;;8.82;1.77;;;;;;;;;;5137372;27;20439;-87
2024/01/31 00:43:11;;;;;;;;;;;;;;;;;;5120553;27;20102;-86
2024/01/31 00:45:37;;;;;;;10.68;2.55;;;;;;;;;;5137320;27;19923;-87
2024/01/31 00:48:03;;;;;;;;;;;;;;;;;;5137688;27;20043;-86
2024/01/31 00:50:29;;;;;;;10.80;1.90;;;;;;;;;;5131694;27;19946;-86
2024/01/31 00:52:55;;;;;;;8.68;1.75;;;;;;;;;;5099434;27;20126;-87
2024/01/31 00:55:21;;;;;;;7.18;1.80;;;;;;;;;;5116849;27;20075;-86
2024/01/31 00:57:48;;;;;;;10.70;1.90;;;;;;;;;;5083016;27;20049;-86
2024/01/31 01:00:14;;;;;;;;;;;;;;;;;;5099404;27;20047;-86
2024/01/31 01:02:41;;;;;;;4.97;1.80;;;;;;;;;;5116691;27;19927;-86
2024/01/31 01:05:10;;;;;;;12.23;2.20;;;;;;;;;;5115919;27;20047;-88
2024/01/31 01:07:39;;;;;;;10.05;1.98;;;;;;;;;;5099403;27;20115;-86
2024/01/31 01:10:07;;;;;;;10.52;1.80;;;;;;;;;;5116340;27;20111;-86
2024/01/31 01:12:33;;;;;;;7.97;2.13;;;;;;;;;;5120446;27;20038;-86
2024/01/31 01:14:59;;;;;;;;;;;;;;;;;;5136926;27;20066;-85
2024/01/31 01:17:25;;;;;;;6.05;1.63;;;;;;;;;;5119824;27;20352;-86
2024/01/31 01:19:51;;;;;;;7.05;1.60;;;;;;;;;;5119666;27;20038;-88
2024/01/31 01:22:17;;;;;;;8.00;1.50;;;;;;;;;;5102488;27;20053;-86
2024/01/31 01:24:43;;;;;;;7.00;1.38;;;;;;;;;;5119779;27;20050;-87
2024/01/31 01:27:09;;;;;;;5.28;1.40;;;;;;;;;;5102743;27;20047;-86
2024/01/31 01:29:35;;;;;;;11.70;2.22;;;;;;;;;;5102911;27;20039;-86
2024/01/31 01:32:01;;;;;;;;;;;;;;;;;;5099050;27;20123;-86
2024/01/31 01:34:27;;;;;;;5.45;1.52;;;;;;;;;;5128903;27;19919;-86
2024/01/31 01:36:53;;;;;;;11.13;1.95;;;;;;;;;;5098478;27;20047;-87
2024/01/31 01:39:19;;;;;;;;;;;;;;;;;;5082606;27;20046;-86
2024/01/31 01:41:51;;;;;;;7.35;1.80;;;;;;;;;;5099145;28;20276;-86
2024/01/31 01:44:17;;;;;;;6.68;1.85;;;;;;;;;;5098828;27;20043;-87
2024/01/31 01:46:43;;;;;;;7.03;1.90;;;;;;;;;;5115735;27;20043;-86
2024/01/31 01:49:10;;;;;;;10.38;2.35;;;;;;;;;;5098760;27;20043;-86
2024/01/31 01:51:36;;;;;;;6.88;1.88;;;;;;;;;;5098613;27;20400;-86
2024/01/31 01:54:02;;;;;;;;;;;;;;;;;;5116017;27;20132;-87
2024/01/31 01:56:29;;;;;;;8.10;1.70;;;;;;;;;;5115660;27;20010;-86
2024/01/31 01:58:55;;;;;;;6.70;1.88;;;;;;;;;;5114711;27;20380;-86
2024/01/31 02:01:22;;;;;;;5.75;1.80;;;;;;;;;;5097186;27;20039;-87
2024/01/31 02:03:51;;;;;;;7.32;2.30;;;;;;;;;;5113754;28;20054;-86
2024/01/31 02:06:17;;;;;;;7.13;1.80;;;;;;;;;;5114837;27;20054;-86
2024/01/31 02:08:43;;;;;;;;;;;;;;;;;;5082569;28;20054;-86
2024/01/31 02:11:09;;;;;;;6.57;1.52;;;;;;;;;;5098437;28;19923;-86
2024/01/31 02:13:35;;;;;;;7.20;1.90;;;;;;;;;;5098698;28;20143;-87
2024/01/31 02:16:01;;;;;;;8.50;1.75;;;;;;;;;;5098128;28;20050;-88
2024/01/31 02:18:28;;;;;;;9.93;1.73;;;;;;;;;;5115383;28;20039;-87
2024/01/31 02:20:54;;;;;;;11.50;2.00;;;;;;;;;;5130726;28;20070;-87
2024/01/31 02:23:21;;;;;;;8.63;1.83;;;;;;;;;;5098212;28;20058;-86
2024/01/31 02:25:48;;;;;;;10.70;2.83;;;;;;;;;;5100359;27;20090;-87
2024/01/31 02:28:14;;;;;;;3.83;1.60;;;;;;;;;;5119378;27;20047;-86
2024/01/31 02:30:40;;;;;;;;;;;;;;;;;;5096199;27;20052;-86
2024/01/31 02:33:06;;;;;;;11.90;1.95;;;;;;;;;;5121805;27;19919;-87
2024/01/31 02:35:33;;;;;;;7.80;1.70;;;;;;;;;;5102398;27;20054;-86
2024/01/31 02:38:00;;;;;;;6.78;1.77;;;;;;;;;;5102376;27;20074;-86
2024/01/31 02:40:26;;;;;;;8.15;2.08;;;;;;;;;;5101713;27;20043;-88
2024/01/31 02:42:53;;;;;;;6.20;1.63;;;;;;;;;;5102616;27;20047;-87
2024/01/31 02:45:19;;;;;;;3.03;1.48;;;;;;;;;;5102080;27;20043;-87
2024/01/31 02:47:45;;;;;;;7.95;1.60;;;;;;;;;;5102513;27;20051;-87
2024/01/31 02:50:11;;;;;;;11.45;1.88;;;;;;;;;;5101842;27;20047;-86
2024/01/31 02:52:37;;;;;;;;;;;;;;;;;;5119188;27;20039;-86
2024/01/31 02:55:04;;;;;;;10.48;1.73;;;;;;;;;;5101943;27;19941;-88
2024/01/31 02:57:30;;;;;;;4.15;1.38;;;;;;;;;;5118986;27;20107;-88
2024/01/31 02:59:56;;;;;;;6.78;1.50;;;;;;;;;;5101949;27;20075;-86
2024/01/31 03:02:22;;;;;;;;;;;;;;;;;;5102246;27;20082;-86
2024/01/31 03:04:48;;;;;;;7.47;1.40;;;;;;;;;;5101964;27;19993;-89
2024/01/31 03:07:14;;;;;;;;;;;;;;;;;;5101836;27;20049;-87
2024/01/31 03:09:40;;;;;;;7.60;1.80;;;;;;;;;;5118895;27;20002;-86
2024/01/31 03:12:06;;;;;;;8.57;1.83;;;;;;;;;;5101859;27;20050;-89
2024/01/31 03:14:33;;;;;;;4.78;1.77;;;;;;;;;;5107844;27;20053;-86
2024/01/31 03:16:59;;;;;;;5.93;1.50;;;;;;;;;;5118783;27;20051;-88
2024/01/31 03:19:25;;;;;;;;;;;;;;;;;;5101841;27;20047;-86
2024/01/31 03:21:51;;;;;;;8.23;1.58;;;;;;;;;;5118194;27;19959;-87
2024/01/31 03:24:17;;;;;;;7.28;1.80;;;;;;;;;;5131660;27;20074;-86
2024/01/31 03:26:43;;;;;;;5.53;1.80;;;;;;;;;;5139244;27;20035;-86
2024/01/31 03:29:09;;;;;;;;;;;;;;;;;;5122285;27;20113;-88
2024/01/31 03:31:35;;;;;;;5.55;1.40;;;;;;;;;;5139036;27;20384;-86
2024/01/31 03:34:01;;;;;;;7.07;1.60;;;;;;;;;;5138619;27;20068;-86
2024/01/31 03:36:27;;;;;;;;;;;;;;;;;;5138734;27;20520;-86
2024/01/31 03:38:55;;;;;;;5.30;1.60;;;;;;;;;;5121653;27;20381;-87
2024/01/31 03:41:21;;;;;;;9.02;1.40;;;;;;;;;;5121138;27;20049;-87
2024/01/31 03:43:47;;;;;;;4.63;1.50;;;;;;;;;;5101452;27;20066;-87
2024/01/31 03:46:13;;;;;;;6.13;1.50;;;;;;;;;;5100713;27;20043;-87
2024/01/31 03:48:39;;;;;;;;;;;;;;;;;;5118724;27;20043;-88
2024/01/31 03:51:05;;;;;;;4.05;1.58;;;;;;;;;;5117796;27;19923;-87
2024/01/31 03:53:31;;;;;;;8.43;1.65;;;;;;;;;;5117823;27;20046;-87
2024/01/31 03:55:57;;;;;;;;;;;;;;;;;;5103842;27;20046;-87
2024/01/31 03:58:24;;;;;;;7.25;1.52;;;;;;;;;;5126222;27;20415;-87
2024/01/31 04:00:50;;;;;;;8.35;1.77;;;;;;;;;;5117492;27;20437;-87
2024/01/31 04:03:20;;;;;;;6.47;1.25;;;;;;;;;;5100727;27;20438;-87
2024/01/31 04:05:46;;;;;;;5.93;1.60;;;;;;;;;;5117559;27;20050;-86
2024/01/31 04:08:12;;;;;;;6.25;1.60;;;;;;;;;;5100823;27;20704;-91
2024/01/31 04:10:38;;;;;;;8.18;1.73;;;;;;;;;;5117871;27;20047;-87
2024/01/31 04:13:04;;;;;;;4.93;1.50;;;;;;;;;;5100957;27;20133;-87
2024/01/31 04:15:30;;;;;;;5.03;1.67;;;;;;;;;;5100196;27;20054;-86
2024/01/31 04:17:57;;;;;;;6.72;1.35;;;;;;;;;;5117655;27;20042;-87
2024/01/31 04:20:24;;;;;;;6.78;1.73;;;;;;;;;;5100087;27;20066;-86
2024/01/31 04:22:50;;;;;;;;;;;;;;;;;;5100891;27;20046;-87
2024/01/31 04:25:16;;;;;;;10.75;1.48;;;;;;;;;;5100119;27;19919;-88
2024/01/31 04:27:42;;;;;;;;;;;;;;;;;;5118285;27;20051;-88
2024/01/31 04:30:11;;;;;;;6.72;1.55;;;;;;;;;;5116982;27;19919;-88
2024/01/31 04:32:37;;;;;;;5.72;1.35;;;;;;;;;;5099498;27;20066;-87
2024/01/31 04:35:03;;;;;;;;;;;;;;;;;;5117193;27;20054;-87
2024/01/31 04:37:29;;;;;;;5.25;1.30;;;;;;;;;;5099472;27;19924;-87
2024/01/31 04:39:55;;;;;;;6.13;1.48;;;;;;;;;;5100258;27;20043;-87
2024/01/31 04:42:21;;;;;;;3.58;1.33;;;;;;;;;;5116872;27;20365;-87
2024/01/31 04:44:47;;;;;;;5.30;1.48;;;;;;;;;;5100291;27;20476;-90
2024/01/31 04:47:13;;;;;;;5.65;1.33;;;;;;;;;;5116991;27;20043;-87
2024/01/31 04:49:40;;;;;;;7.40;1.40;;;;;;;;;;5116389;27;20065;-86
2024/01/31 04:52:06;;;;;;;2.95;1.10;;;;;;;;;;5119560;27;20035;-87
2024/01/31 04:54:32;;;;;;;3.95;0.80;;;;;;;;;;5082932;27;20476;-87
2024/01/31 04:56:58;;;;;;;;;;;;;;;;;;5100576;27;20089;-86
2024/01/31 04:59:24;;;;;;;3.78;0.90;;;;;;;;;;5099465;27;19970;-87
2024/01/31 05:01:51;;;;;;;1.42;0.70;;;;;;;;;;5116560;27;20051;-86
2024/01/31 05:04:17;;;;;;;2.28;0.82;;;;;;;;;;5116735;27;20062;-86
2024/01/31 05:06:43;;;;;;;4.22;1.00;;;;;;;;;;5099707;27;20042;-87
2024/01/31 05:09:09;;;;;;;3.30;0.93;;;;;;;;;;5099361;27;20050;-86
2024/01/31 05:11:35;;;;;;;3.08;1.00;;;;;;;;;;5116482;27;20476;-87
2024/01/31 05:14:01;;;;;;;;;;;;;;;;;;5100038;27;20100;-87
2024/01/31 05:16:27;;;;;;;3.10;0.77;;;;;;;;;;5111461;27;19923;-88
2024/01/31 05:18:53;;;;;;;0.70;0.70;;;;;;;;;;5099862;27;20074;-86
2024/01/31 05:21:19;;;;;;;3.60;1.08;;;;;;;;;;5099064;27;20099;-86
2024/01/31 05:23:45;;;;;;;5.88;1.15;;;;;;;;;;5082474;27;20043;-86
2024/01/31 05:26:11;;;;;;;;;;;;;;;;;;5116472;27;20133;-87
2024/01/31 05:28:37;;;;;;;1.50;1.00;;;;;;;;;;5115432;27;19961;-86
2024/01/31 05:31:03;;;;;;;;;;;;;;;;;;5115865;27;20472;-87
2024/01/31 05:33:30;;;;;;;4.85;1.40;;;;;;;;;;5114755;27;20022;-87
2024/01/31 05:35:58;;;;;;;1.55;1.13;;;;;;;;;;5114393;27;20043;-87
2024/01/31 05:38:24;;;;;;;6.03;1.50;;;;;;;;;;5100113;27;20096;-89
2024/01/31 05:40:50;;;;;;;;;;;;;;;;;;5115456;27;20111;-87
2024/01/31 05:43:18;;;;;;;7.20;1.60;;;;;;;;;;5119512;27;20411;-86
2024/01/31 05:45:44;;;;;;;5.13;1.77;;;;;;;;;;5119044;27;20593;-87
2024/01/31 05:48:10;;;;;;;;;;;;;;;;;;5137008;27;20483;-86
2024/01/31 05:50:36;;;;;;;6.38;1.75;;;;;;;;;;5135915;27;20056;-87
2024/01/31 05:53:02;;;;;;;5.38;1.75;;;;;;;;;;5102504;27;20480;-87
2024/01/31 05:55:28;;;;;;;8.68;1.50;;;;;;;;;;5119088;27;20395;-87
2024/01/31 05:57:54;;;;;;;6.43;1.92;;;;;;;;;;5102672;27;20582;-87
2024/01/31 06:00:20;;;;;;;4.25;1.50;;;;;;;;;;5113995;27;20047;-86
2024/01/31 06:02:46;;;;;;;;;;;;;;;;;;5119251;27;20039;-87
2024/01/31 06:05:12;;;;;;;8.77;1.60;;;;;;;;;;5118923;27;19927;-87
2024/01/31 06:07:39;;;;;;;6.85;1.65;;;;;;;;;;5135751;27;20043;-86
2024/01/31 06:10:04;;;;;;;;;;;;;;;;;;5136810;27;20038;-86
2024/01/31 06:12:31;;;;;;;6.47;1.70;;;;;;;;;;5136067;27;19976;-87
2024/01/31 06:14:57;;;;;;;9.38;2.47;;;;;;;;;;5119097;27;20089;-88
2024/01/31 06:17:23;;;;;;;2.72;1.58;;;;;;;;;;5116899;27;20043;-87
2024/01/31 06:19:49;;;;;;;;;;;;;;;;;;5098956;28;20573;-86
2024/01/31 06:22:15;;;;;;;5.63;1.60;;;;;;;;;;5115576;28;19970;-87
2024/01/31 06:24:41;;;;;;;8.88;2.20;;;;;;;;;;5121294;28;20103;-87
2024/01/31 06:27:07;;;;;;;;;;;;;;;;;;5082650;28;20058;-87
2024/01/31 06:29:33;;;;;;;7.22;1.98;;;;;;;;;;5115349;28;19919;-88
2024/01/31 06:32:00;;;;;;;7.13;2.08;;;;;;;;;;5131142;27;20316;-83
2024/01/31 06:34:26;;;;;;;4.63;1.90;;;;;;;;;;5135486;27;20050;-81
2024/01/31 06:36:53;;;;;;;3.35;1.77;;;;;;;;;;5135247;27;20043;-80
2024/01/31 06:39:19;;;;;;;;;;;;;;;;;;5119888;27;20042;-91
2024/01/31 06:41:45;;;;;;;8.05;1.88;;;;;;;;;;5136670;27;19919;-89
2024/01/31 06:44:11;;;;;;;8.15;1.80;;;;;;;;;;5102902;27;20047;-90
2024/01/31 06:46:38;;;;;;;;;;;;;;;;;;5124773;28;20043;-82
2024/01/31 06:49:04;;;;;;;2.80;1.50;;;;;;;;;;5110193;27;20477;-93
2024/01/31 06:51:31;;;;;;;;;;;;;;;;;;5112947;27;20121;-90
2024/01/31 06:53:59;;;;;;;4.72;1.80;;;;;;;;;;5100409;28;19927;-88
2024/01/31 06:56:25;;;;;;;7.18;1.83;;;;;;;;;;5115932;28;20047;-90
2024/01/31 06:58:51;;;;;;;;;;;;;;;;;;5134544;27;20035;-86
2024/01/31 07:01:17;;;;;;;3.00;1.60;;;;;;;;;;5114726;28;19919;-90
2024/01/31 07:03:44;;;;;;;5.85;2.60;;;;;;;;;;5134091;27;20287;-89
2024/01/31 07:06:11;;;;;;;4.25;1.70;;;;;;;;;;5097555;28;20184;-83
2024/01/31 07:08:38;;;;;;;5.65;1.75;;;;;;;;;;5116111;27;20095;-87
2024/01/31 07:11:10;;;;;;;9.27;2.10;;;;;;;;;;5133061;27;20492;-86
2024/01/31 07:13:37;;;;;;;7.22;2.28;;;;;;;;;;5118640;27;20043;-87
2024/01/31 07:16:09;;;;;;;5.28;1.90;;;;;;;;;;5102856;27;20134;-87
2024/01/31 07:18:36;;;;;;;7.22;2.20;;;;;;;;;;5126231;27;20043;-89
2024/01/31 07:21:02;;;;;;;7.15;2.60;;;;;;;;;;5122201;27;20042;-86
2024/01/31 07:23:28;;;;;;;4.88;2.40;;;;;;;;;;5139457;27;20391;-84
2024/01/31 07:25:54;;;;;;;8.52;2.53;;;;;;;;;;5133551;27;20036;-82
2024/01/31 07:28:20;;;;;;;;;;;;;;;;;;5102509;27;20086;-83
2024/01/31 07:30:46;;;;;;;4.63;2.00;;;;;;;;;;5136876;27;19926;-82
2024/01/31 07:33:13;;;;;;;9.35;2.40;;;;;;;;;;5126467;27;20061;-79
2024/01/31 07:35:39;;;;;;;;;;;;;;;;;;5138729;27;20619;-82
2024/01/31 07:38:05;;;;;;;7.47;2.17;;;;;;;;;;5120803;27;19919;-81
2024/01/31 07:40:31;;;;;;;9.13;2.20;;;;;;;;;;5125105;27;20049;-90
2024/01/31 07:43:00;;;;;;;7.75;2.35;;;;;;;;;;5127107;27;20366;-86
2024/01/31 07:45:29;;;;;;;6.88;2.35;;;;;;;;;;5114741;27;20043;-83
2024/01/31 07:47:56;;;;;;;7.50;2.40;;;;;;;;;;5100308;27;20484;-81
2024/01/31 07:50:22;;;;;;;6.25;2.13;;;;;;;;;;5130728;27;20088;-84
2024/01/31 07:52:48;;;;;;;;;;;;;;;;;;5117239;27;20058;-82
2024/01/31 07:55:14;;;;;;;8.48;2.92;;;;;;;;;;5117874;27;20356;-85
2024/01/31 07:57:40;;;;;;;;;;;;;;;;;;5097644;27;20046;-86
2024/01/31 08:00:07;;;;;;;6.82;3.22;;;;;;;;;;5137669;27;19926;-86
2024/01/31 08:02:33;;;;;;;9.45;3.15;;;;;;;;;;5131350;27;20098;-86
2024/01/31 08:04:59;;;;;;;7.78;3.53;;;;;;;;;;5136970;27;20057;-86
2024/01/31 08:07:26;;;;;;;;;;;;;;;;;;5100900;27;20035;-85
2024/01/31 08:09:52;;;;;;;11.15;4.25;;;;;;;;;;5100156;27;20016;-86
2024/01/31 08:12:18;;;;;;;14.63;3.60;;;;;;;;;;5100733;27;20039;-86
2024/01/31 08:14:44;;;;;;;;;;;;;;;;;;5117604;27;20107;-86
2024/01/31 08:17:11;;;;;;;10.73;3.47;;;;;;;;;;5117179;27;20361;-85
2024/01/31 08:19:37;;;;;;;9.07;4.25;;;;;;;;;;5103171;27;20050;-86
2024/01/31 08:22:03;;;;;;;10.57;4.30;;;;;;;;;;5119337;27;20561;-85
2024/01/31 08:24:30;;;;;;;9.40;3.83;;;;;;;;;;5137182;27;20043;-86
2024/01/31 08:26:56;;;;;;;13.20;4.15;;;;;;;;;;5120027;27;20083;-85
2024/01/31 08:29:22;;;;;;;;;;;;;;;;;;5120776;27;20499;-86
2024/01/31 08:31:48;;;;;;;13.25;3.80;;;;;;;;;;5137022;27;19919;-86
2024/01/31 08:34:14;;;;;;;8.75;4.20;;;;;;;;;;5115943;27;20075;-86
2024/01/31 08:36:40;;;;;;;11.60;4.55;;;;;;;;;;5116093;27;20399;-86
2024/01/31 08:39:09;;;;;;;;;;;;;;;;;;5082942;27;20047;-86
2024/01/31 08:41:36;;;;;;;10.38;4.18;;;;;;;;;;5111032;27;19998;-85
2024/01/31 08:44:02;;;;;;;11.63;4.05;;;;;;;;;;5137071;27;20042;-85
2024/01/31 08:46:28;;;;;;;10.02;3.90;;;;;;;;;;5111042;27;20053;-85
2024/01/31 08:48:54;;;;;;;;;;;;;;;;;;5099684;27;20051;-86
2024/01/31 08:51:20;;;;;;;12.85;3.40;;;;;;;;;;5115884;27;19919;-88
2024/01/31 08:53:46;;;;;;;;;;;;;;;;;;5099771;27;20092;-86
2024/01/31 08:56:12;;;;;;;10.88;4.07;;;;;;;;;;5116330;27;19920;-87
2024/01/31 08:58:39;;;;;;;;;;;;;;;;;;5124659;27;20501;-88
2024/01/31 09:01:06;;;;;;;9.17;3.57;;;;;;;;;;5118543;27;19926;-86
2024/01/31 09:03:32;;;;;;;12.88;3.88;;;;;;;;;;5098547;27;20307;-84
2024/01/31 09:05:58;;;;;;;13.07;4.10;;;;;;;;;;5097948;27;20450;-85
2024/01/31 09:08:24;;;;;;;7.82;3.70;;;;;;;;;;5114177;27;20038;-85
2024/01/31 09:10:50;;;;;;;;;;;;;;;;;;5119601;27;20038;-86
2024/01/31 09:13:16;;;;;;;9.65;4.10;;;;;;;;;;5136682;27;19968;-88
2024/01/31 09:15:42;;;;;;;;;;;;;;;;;;5136424;27;20046;-86
2024/01/31 09:18:08;;;;;;;10.90;3.78;;;;;;;;;;5136057;27;19925;-85
2024/01/31 09:20:36;;;;;;;10.13;3.90;;;;;;;;;;5118715;27;20038;-85
2024/01/31 09:23:02;;;;;;;11.55;4.40;;;;;;;;;;5125975;27;20038;-85
2024/01/31 09:25:28;;;;;;;9.77;4.35;;;;;;;;;;5098958;27;20414;-85
2024/01/31 09:27:54;;;;;;;;;;;;;;;;;;5098932;27;20043;-86
2024/01/31 09:30:20;;;;;;;9.10;4.78;;;;;;;;;;5135379;27;19922;-86
2024/01/31 09:32:46;;;;;;;13.43;4.45;;;;;;;;;;5118808;27;20039;-86
2024/01/31 09:35:12;;;;;;;;;;;;;;;;;;5117669;27;20046;-85
2024/01/31 09:37:38;;;;;;;8.75;3.20;;;;;;;;;;5136085;27;20280;-86
2024/01/31 09:40:05;;;;;;;;;;;;;;;;;;5136140;27;20035;-86
2024/01/31 09:42:31;;;;;;;8.27;3.37;;;;;;;;;;5131916;27;19919;-86
2024/01/31 09:44:57;;;;;;;;;;;;;;;;;;5136304;27;20045;-86
2024/01/31 09:47:27;;;;;;;8.88;3.05;;;;;;;;;;5135968;27;20272;-85
2024/01/31 09:49:55;;;;;;;8.50;3.45;;;;;;;;;;5132612;27;20043;-86
2024/01/31 09:52:27;;;;;;;9.63;3.63;;;;;;;;;;5117693;27;20054;-86
2024/01/31 09:54:57;;;;;;;6.25;3.20;;;;;;;;;;5118348;27;20042;-88
2024/01/31 09:57:24;;;;;;;7.10;3.15;;;;;;;;;;5135711;27;20081;-85
2024/01/31 09:59:51;;;;;;;10.10;3.88;;;;;;;;;;5118620;27;20087;-84
2024/01/31 10:02:17;;;;;;;11.57;3.97;;;;;;;;;;5112426;27;20050;-84
2024/01/31 10:04:47;;;;;;;7.05;3.50;;;;;;;;;;5121192;27;20038;-86
2024/01/31 10:07:21;;;;;;;14.60;3.55;;;;;;;;;;5112426;27;20114;-85
2024/01/31 10:09:47;;;;;;;8.20;3.60;;;;;;;;;;5115108;27;20043;-87
2024/01/31 10:12:14;;;;;;;9.98;3.70;;;;;;;;;;5134794;27;20118;-85
2024/01/31 10:14:41;;;;;;;12.50;4.30;;;;;;;;;;5114559;28;20051;-85
2024/01/31 10:17:07;;;;;;;9.18;3.80;;;;;;;;;;5122711;28;20053;-86
2024/01/31 10:19:33;;;;;;;;;;;;;;;;;;5091159;28;20074;-85
2024/01/31 10:21:59;;;;;;;9.45;4.05;;;;;;;;;;5125439;27;20395;-85
2024/01/31 10:24:25;;;;;;;;;;;;;;;;;;5135776;27;20116;-84
2024/01/31 10:26:51;;;;;;;7.28;3.75;;;;;;;;;;5116734;27;19958;-85
2024/01/31 10:29:19;;;;;;;10.43;4.32;;;;;;;;;;5117992;27;20095;-85
2024/01/31 10:31:46;;;;;;;8.23;4.15;;;;;;;;;;5118510;27;20043;-84
2024/01/31 10:34:13;;;;;;;11.60;4.18;;;;;;;;;;5114820;28;20071;-84
2024/01/31 10:36:42;;;;;;;9.02;4.13;;;;;;;;;;5131343;28;20047;-83
2024/01/31 10:39:11;;;;;;;8.75;4.53;;;;;;;;;;5114689;28;20051;-83
2024/01/31 10:41:40;;;;;;;8.23;4.10;;;;;;;;;;5132419;28;20035;-83
2024/01/31 10:44:10;;;;;;;9.95;4.63;;;;;;;;;;5114437;28;20373;-83
2024/01/31 10:46:37;;;;;;;10.05;4.72;;;;;;;;;;5115834;27;20042;-84
2024/01/31 10:49:03;;;;;;;10.43;4.70;;;;;;;;;;5110331;27;20681;-84
2024/01/31 10:51:30;;;;;;;11.45;5.60;;;;;;;;;;5095130;27;20050;-84
2024/01/31 10:53:57;;;;;;;10.05;5.07;;;;;;;;;;5135793;27;20050;-84
2024/01/31 10:56:24;;;;;;;11.25;5.72;;;;;;;;;;5116796;27;20046;-84
2024/01/31 10:58:50;;;;;;;11.70;5.35;;;;;;;;;;5105040;27;20050;-83
2024/01/31 11:01:16;;;;;;;;;;;;;;;;;;5134087;27;20085;-84
2024/01/31 11:03:46;;;;;;;11.15;5.47;;;;;;;;;;5104569;27;19919;-83
2024/01/31 11:06:12;;;;;;;11.57;5.60;;;;;;;;;;5117159;27;20047;-84
2024/01/31 11:08:38;;;;;;;;;;;;;;;;;;5133810;27;20035;-84
2024/01/31 11:11:09;;;;;;;10.48;5.93;;;;;;;;;;5127444;27;20002;-85
2024/01/31 11:13:36;;;;;;;13.50;6.47;;;;;;;;;;5110338;27;20487;-84
2024/01/31 11:16:02;;;;;;;12.68;6.82;;;;;;;;;;5134493;27;20043;-85
2024/01/31 11:18:29;;;;;;;13.23;7.40;;;;;;;;;;5118307;27;20047;-83
2024/01/31 11:20:55;;;;;;;12.77;6.95;;;;;;;;;;5117285;27;20126;-85
2024/01/31 11:23:23;;;;;;;14.93;7.43;;;;;;;;;;5134534;27;20047;-84
2024/01/31 11:25:50;;;;;;;12.02;6.68;;;;;;;;;;5135146;27;20180;-84
2024/01/31 11:28:17;;;;;;;11.68;6.25;;;;;;;;;;5129028;27;20039;-83
2024/01/31 11:30:43;;;;;;;12.93;6.65;;;;;;;;;;5132587;27;20358;-86
2024/01/31 11:33:09;;;;;;;11.50;6.18;;;;;;;;;;5128412;27;20489;-85
2024/01/31 11:35:35;;;;;;;;;;;;;;;;;;5099124;27;20035;-84
2024/01/31 11:38:02;;;;;;;10.60;5.53;;;;;;;;;;5112917;28;19931;-87
2024/01/31 11:40:28;;;;;;;9.02;5.20;;;;;;;;;;5114942;27;20043;-85
2024/01/31 11:42:56;;;;;;;11.23;5.43;;;;;;;;;;5098715;27;20092;-84
2024/01/31 11:45:23;;;;;;;12.88;5.43;;;;;;;;;;5099327;27;20047;-85
2024/01/31 11:47:50;;;;;;;10.55;5.45;;;;;;;;;;5112917;28;20039;-84
2024/01/31 11:50:16;;;;;;;10.65;5.85;;;;;;;;;;5110852;27;20049;-84
2024/01/31 11:52:42;;;;;;;11.27;5.53;;;;;;;;;;5116333;27;20046;-84
2024/01/31 11:55:08;;;;;;;;;;;;;;;;;;5116423;27;20047;-84
2024/01/31 11:57:34;;;;;;;9.55;5.47;;;;;;;;;;5116455;27;19934;-85
2024/01/31 12:00:04;;;;;;;11.02;6.38;;;;;;;;;;5099304;27;20099;-85
2024/01/31 12:02:31;;;;;;;13.38;5.90;;;;;;;;;;5133016;27;20051;-85
2024/01/31 12:04:57;;;;;;;12.85;6.03;;;;;;;;;;5116122;27;20126;-87
2024/01/31 12:07:23;;;;;;;12.75;5.65;;;;;;;;;;5115966;27;20051;-87
2024/01/31 12:09:49;;;;;;;12.15;5.90;;;;;;;;;;5132898;27;20047;-87
2024/01/31 12:12:15;;;;;;;;;;;;;;;;;;5116286;27;20079;-86
2024/01/31 12:14:42;;;;;;;10.85;6.20;;;;;;;;;;5132970;27;19974;-86
2024/01/31 12:17:21;;;;;;;9.73;5.68;;;;;;;;;;5132345;27;20035;-86
2024/01/31 12:19:47;;;;;;;10.68;6.05;;;;;;;;;;5134071;27;20039;-86
2024/01/31 12:22:13;;;;;;;9.43;5.80;;;;;;;;;;5107831;27;20120;-86
2024/01/31 12:24:39;;;;;;;;;;;;;;;;;;5117382;27;20428;-86
2024/01/31 12:27:05;;;;;;;9.18;5.80;;;;;;;;;;5133836;27;19919;-86
2024/01/31 12:29:32;;;;;;;11.20;6.13;;;;;;;;;;5133331;27;20126;-87
2024/01/31 12:31:58;;;;;;;11.20;5.72;;;;;;;;;;5113071;28;20082;-89
2024/01/31 12:34:24;;;;;;;;;;;;;;;;;;5096435;28;20051;-82
2024/01/31 12:36:50;;;;;;;14.13;7.28;;;;;;;;;;5120816;27;19946;-87
2024/01/31 12:39:19;;;;;;;;;;;;;;;;;;5133691;27;20399;-86
2024/01/31 12:41:48;;;;;;;10.40;5.95;;;;;;;;;;5132724;27;19923;-88
2024/01/31 12:44:14;;;;;;;10.75;6.70;;;;;;;;;;5097676;27;20126;-87
2024/01/31 12:46:40;;;;;;;10.40;6.38;;;;;;;;;;5133454;27;20080;-87
2024/01/31 12:49:06;;;;;;;;;;;;;;;;;;5122539;27;20097;-87
2024/01/31 12:51:32;;;;;;;10.90;6.40;;;;;;;;;;5129054;27;20390;-88
2024/01/31 12:53:58;;;;;;;11.48;7.25;;;;;;;;;;5134341;27;20043;-88
2024/01/31 12:56:24;;;;;;;11.30;7.00;;;;;;;;;;5133273;27;20046;-86
2024/01/31 12:58:50;;;;;;;;;;;;;;;;;;5116322;27;20045;-88
2024/01/31 13:01:19;;;;;;;12.85;7.15;;;;;;;;;;5114629;27;19919;-88
2024/01/31 13:03:45;;;;;;;12.57;6.57;;;;;;;;;;5115536;27;20054;-91
2024/01/31 13:06:11;;;;;;;13.77;7.40;;;;;;;;;;5114364;27;20134;-87
2024/01/31 13:08:38;;;;;;;11.23;6.78;;;;;;;;;;5112190;28;20035;-88
2024/01/31 13:11:04;;;;;;;13.70;7.07;;;;;;;;;;5095577;28;20062;-89
2024/01/31 13:13:30;;;;;;;13.77;7.25;;;;;;;;;;5112417;28;20052;-90
2024/01/31 13:15:56;;;;;;;;;;;;;;;;;;5113140;28;20062;-88
2024/01/31 13:18:22;;;;;;;13.77;7.68;;;;;;;;;;5112098;28;19920;-89
2024/01/31 13:20:48;;;;;;;;;;;;;;;;;;5078694;28;20044;-89
2024/01/31 13:23:15;;;;;;;11.65;6.90;;;;;;;;;;5111463;28;19919;-88
2024/01/31 13:25:41;;;;;;;11.45;7.57;;;;;;;;;;5095698;28;20057;-87
2024/01/31 13:28:08;;;;;;;15.32;8.82;;;;;;;;;;5112623;28;20134;-88
2024/01/31 13:30:34;;;;;;;13.05;7.18;;;;;;;;;;5078301;28;20055;-88
2024/01/31 13:33:00;;;;;;;12.65;7.38;;;;;;;;;;5112065;28;20091;-88
2024/01/31 13:35:26;;;;;;;;;;;;;;;;;;5094519;27;20051;-89
2024/01/31 13:37:52;;;;;;;12.73;7.20;;;;;;;;;;5109125;28;19919;-89
2024/01/31 13:40:18;;;;;;;;;;;;;;;;;;5112407;28;20503;-89
2024/01/31 13:42:47;;;;;;;14.10;7.72;;;;;;;;;;5095707;28;19959;-89
2024/01/31 13:45:13;;;;;;;13.55;7.63;;;;;;;;;;5111947;28;20086;-87
2024/01/31 13:47:39;;;;;;;;;;;;;;;;;;5095520;28;20055;-89
2024/01/31 13:50:06;;;;;;;13.13;7.43;;;;;;;;;;5111566;28;19920;-88
2024/01/31 13:52:32;;;;;;;14.02;7.57;;;;;;;;;;5111754;28;20085;-89
2024/01/31 13:54:58;;;;;;;14.48;7.53;;;;;;;;;;5095209;28;20051;-89
2024/01/31 13:57:24;;;;;;;17.33;7.95;;;;;;;;;;5094673;28;20043;-90
2024/01/31 13:59:50;;;;;;;18.65;8.30;;;;;;;;;;5086302;28;20105;-89
2024/01/31 14:02:16;;;;;;;;;;;;;;;;;;5095319;28;20051;-89
2024/01/31 14:04:42;;;;;;;16.55;8.10;;;;;;;;;;5112129;28;20038;-87
2024/01/31 14:07:08;;;;;;;;;;;;;;;;;;5094623;28;20142;-87
2024/01/31 14:09:34;;;;;;;18.42;8.68;;;;;;;;;;5124083;27;19967;-88
2024/01/31 14:12:03;;;;;;;15.50;8.48;;;;;;;;;;5131667;27;20527;-89
2024/01/31 14:14:29;;;;;;;19.25;8.88;;;;;;;;;;5097682;28;20103;-88
2024/01/31 14:16:55;;;;;;;18.15;9.63;;;;;;;;;;5115382;28;20047;-89
2024/01/31 14:19:21;;;;;;;23.13;9.50;;;;;;;;;;5114996;28;20093;-89
2024/01/31 14:21:47;;;;;;;19.35;9.82;;;;;;;;;;5116681;27;20069;-89
2024/01/31 14:24:14;;;;;;;17.08;9.55;;;;;;;;;;5119642;27;20043;-88
2024/01/31 14:26:40;;;;;;;18.60;10.27;;;;;;;;;;5130911;27;20156;-89
2024/01/31 14:29:06;;;;;;;;;;;;;;;;;;5117277;27;20446;-90
2024/01/31 14:31:33;;;;;;;21.83;10.95;;;;;;;;;;5133368;27;19919;-90
2024/01/31 14:33:59;;;;;;;22.55;10.88;;;;;;;;;;5098070;28;20051;-89
2024/01/31 14:36:25;;;;;;;;;;;;;;;;;;5096463;28;20055;-90
2024/01/31 14:38:51;;;;;;;19.63;9.90;;;;;;;;;;5118989;27;19919;-89
2024/01/31 14:41:17;;;;;;;;;;;;;;;;;;5119391;27;20039;-91
2024/01/31 14:43:43;;;;;;;23.33;10.60;;;;;;;;;;5127605;27;20368;-89
2024/01/31 14:46:09;;;;;;;;;;;;;;;;;;5096274;27;20043;-89
2024/01/31 14:48:35;;;;;;;23.45;10.82;;;;;;;;;;5115104;27;19927;-90
2024/01/31 14:51:02;;;;;;;21.88;11.20;;;;;;;;;;5106730;27;20047;-89
2024/01/31 14:53:28;;;;;;;21.13;10.95;;;;;;;;;;5111526;27;20055;-88
2024/01/31 14:55:54;;;;;;;20.75;10.90;;;;;;;;;;5119660;27;20426;-84